sensor_id;sensor_type;location;lat;lon;timestamp;P1;durP1;ratioP1;P2;durP2;ratioP2
35380;SDS011;21486;51.916;8.378;2022-11-20T00:00:36;52.05;;;29.30;;
35380;SDS011;21486;51.916;8.378;2022-11-20T00:03:01;46.63;;;27.40;;
35380;SDS011;21486;51.916;8.378;2022-11-20T00:05:27;50.23;;;27.10;;
35380;SDS011;21486;51.916;8.378;2022-11-20T00:07:53;52.17;;;27.43;;
35380;SDS011;21486;51.916;8.378;2022-11-20T00:10:18;50.23;;;26.27;;
35380;SDS011;21486;51.916;8.378;2022-11-20T00:12:44;45.73;;;26.17;;
35380;SDS011;21486;51.916;8.378;2022-11-20T00:15:09;47.87;;;26.87;;
35380;SDS011;21486;51.916;8.378;2022-11-20T00:17:35;46.40;;;26.70;;
35380;SDS011;21486;51.916;8.378;2022-11-20T00:20:00;46.80;;;27.70;;
35380;SDS011;21486;51.916;8.378;2022-11-20T00:22:26;45.75;;;27.20;;
35380;SDS011;21486;51.916;8.378;2022-11-20T00:24:52;48.13;;;26.27;;
35380;SDS011;21486;51.916;8.378;2022-11-20T00:27:17;51.15;;;27.27;;
35380;SDS011;21486;51.916;8.378;2022-11-20T00:29:43;46.50;;;27.10;;
35380;SDS011;21486;51.916;8.378;2022-11-20T00:32:08;47.38;;;25.88;;
35380;SDS011;21486;51.916;8.378;2022-11-20T00:34:34;40.80;;;25.10;;
35380;SDS011;21486;51.916;8.378;2022-11-20T00:36:59;45.38;;;26.05;;
35380;SDS011;21486;51.916;8.378;2022-11-20T00:39:25;48.05;;;27.00;;
35380;SDS011;21486;51.916;8.378;2022-11-20T00:41:50;47.10;;;26.75;;
35380;SDS011;21486;51.916;8.378;2022-11-20T00:44:16;46.83;;;26.48;;
35380;SDS011;21486;51.916;8.378;2022-11-20T00:46:42;42.15;;;26.08;;
35380;SDS011;21486;51.916;8.378;2022-11-20T00:49:07;48.57;;;25.90;;
35380;SDS011;21486;51.916;8.378;2022-11-20T00:51:33;47.43;;;25.60;;
35380;SDS011;21486;51.916;8.378;2022-11-20T00:53:59;46.90;;;25.63;;
35380;SDS011;21486;51.916;8.378;2022-11-20T00:56:26;43.70;;;25.48;;
35380;SDS011;21486;51.916;8.378;2022-11-20T00:58:52;44.38;;;25.88;;
35380;SDS011;21486;51.916;8.378;2022-11-20T01:01:19;45.13;;;26.13;;
35380;SDS011;21486;51.916;8.378;2022-11-20T01:03:47;43.57;;;25.20;;
35380;SDS011;21486;51.916;8.378;2022-11-20T01:06:32;47.93;;;26.83;;
35380;SDS011;21486;51.916;8.378;2022-11-20T01:09:02;44.85;;;26.75;;
35380;SDS011;21486;51.916;8.378;2022-11-20T01:11:31;45.58;;;26.48;;
35380;SDS011;21486;51.916;8.378;2022-11-20T01:13:59;44.83;;;26.13;;
35380;SDS011;21486;51.916;8.378;2022-11-20T01:16:26;50.10;;;27.38;;
35380;SDS011;21486;51.916;8.378;2022-11-20T01:18:58;45.13;;;26.30;;
35380;SDS011;21486;51.916;8.378;2022-11-20T01:21:29;45.30;;;25.58;;
35380;SDS011;21486;51.916;8.378;2022-11-20T01:23:56;45.33;;;26.25;;
35380;SDS011;21486;51.916;8.378;2022-11-20T01:26:26;45.03;;;25.80;;
35380;SDS011;21486;51.916;8.378;2022-11-20T01:28:54;42.33;;;25.80;;
35380;SDS011;21486;51.916;8.378;2022-11-20T01:33:03;47.05;;;27.55;;
35380;SDS011;21486;51.916;8.378;2022-11-20T01:35:29;49.60;;;27.50;;
35380;SDS011;21486;51.916;8.378;2022-11-20T01:37:54;49.13;;;28.05;;
35380;SDS011;21486;51.916;8.378;2022-11-20T01:40:20;44.65;;;26.20;;
35380;SDS011;21486;51.916;8.378;2022-11-20T01:42:52;44.58;;;27.45;;
35380;SDS011;21486;51.916;8.378;2022-11-20T01:48:19;44.70;;;26.05;;
35380;SDS011;21486;51.916;8.378;2022-11-20T01:50:47;48.13;;;27.05;;
35380;SDS011;21486;51.916;8.378;2022-11-20T01:53:15;46.37;;;26.93;;
35380;SDS011;21486;51.916;8.378;2022-11-20T01:55:45;50.35;;;27.73;;
35380;SDS011;21486;51.916;8.378;2022-11-20T01:58:15;50.17;;;27.45;;
35380;SDS011;21486;51.916;8.378;2022-11-20T02:00:41;49.92;;;28.60;;
35380;SDS011;21486;51.916;8.378;2022-11-20T02:03:09;53.58;;;29.50;;
35380;SDS011;21486;51.916;8.378;2022-11-20T02:05:41;49.37;;;29.23;;
35380;SDS011;21486;51.916;8.378;2022-11-20T02:08:28;52.75;;;28.77;;
35380;SDS011;21486;51.916;8.378;2022-11-20T02:10:55;53.78;;;29.55;;
35380;SDS011;21486;51.916;8.378;2022-11-20T02:13:20;53.23;;;29.13;;
35380;SDS011;21486;51.916;8.378;2022-11-20T02:16:08;48.17;;;27.58;;
35380;SDS011;21486;51.916;8.378;2022-11-20T02:18:35;47.85;;;27.85;;
35380;SDS011;21486;51.916;8.378;2022-11-20T02:21:06;53.78;;;28.95;;
35380;SDS011;21486;51.916;8.378;2022-11-20T02:26:58;52.15;;;28.52;;
35380;SDS011;21486;51.916;8.378;2022-11-20T02:29:35;51.35;;;28.02;;
35380;SDS011;21486;51.916;8.378;2022-11-20T02:32:04;46.35;;;26.67;;
35380;SDS011;21486;51.916;8.378;2022-11-20T02:34:30;51.30;;;27.95;;
35380;SDS011;21486;51.916;8.378;2022-11-20T02:36:56;50.28;;;27.67;;
35380;SDS011;21486;51.916;8.378;2022-11-20T02:39:24;46.35;;;27.63;;
35380;SDS011;21486;51.916;8.378;2022-11-20T02:41:52;52.05;;;28.17;;
35380;SDS011;21486;51.916;8.378;2022-11-20T02:44:19;58.47;;;30.95;;
35380;SDS011;21486;51.916;8.378;2022-11-20T02:46:45;50.95;;;27.63;;
35380;SDS011;21486;51.916;8.378;2022-11-20T02:49:10;51.17;;;27.58;;
35380;SDS011;21486;51.916;8.378;2022-11-20T02:51:36;46.92;;;28.00;;
35380;SDS011;21486;51.916;8.378;2022-11-20T02:54:02;47.30;;;27.48;;
35380;SDS011;21486;51.916;8.378;2022-11-20T02:56:27;51.92;;;28.45;;
35380;SDS011;21486;51.916;8.378;2022-11-20T02:58:53;47.27;;;25.77;;
35380;SDS011;21486;51.916;8.378;2022-11-20T03:01:19;48.90;;;26.83;;
35380;SDS011;21486;51.916;8.378;2022-11-20T03:03:45;49.50;;;25.88;;
35380;SDS011;21486;51.916;8.378;2022-11-20T03:06:10;44.33;;;25.65;;
35380;SDS011;21486;51.916;8.378;2022-11-20T03:08:36;42.22;;;25.27;;
35380;SDS011;21486;51.916;8.378;2022-11-20T03:11:05;40.50;;;23.70;;
35380;SDS011;21486;51.916;8.378;2022-11-20T03:13:32;45.90;;;25.95;;
35380;SDS011;21486;51.916;8.378;2022-11-20T03:15:58;42.35;;;24.80;;
35380;SDS011;21486;51.916;8.378;2022-11-20T03:18:23;44.00;;;24.53;;
35380;SDS011;21486;51.916;8.378;2022-11-20T03:20:49;42.60;;;24.40;;
35380;SDS011;21486;51.916;8.378;2022-11-20T03:23:14;45.43;;;25.30;;
35380;SDS011;21486;51.916;8.378;2022-11-20T03:25:40;46.25;;;25.88;;
35380;SDS011;21486;51.916;8.378;2022-11-20T03:28:05;42.83;;;24.65;;
35380;SDS011;21486;51.916;8.378;2022-11-20T03:30:31;44.47;;;23.88;;
35380;SDS011;21486;51.916;8.378;2022-11-20T03:32:57;39.27;;;23.63;;
35380;SDS011;21486;51.916;8.378;2022-11-20T03:35:22;41.10;;;23.80;;
35380;SDS011;21486;51.916;8.378;2022-11-20T03:37:48;43.03;;;24.10;;
35380;SDS011;21486;51.916;8.378;2022-11-20T03:40:14;41.42;;;23.63;;
35380;SDS011;21486;51.916;8.378;2022-11-20T03:42:39;40.05;;;22.75;;
35380;SDS011;21486;51.916;8.378;2022-11-20T03:45:11;41.88;;;23.42;;
35380;SDS011;21486;51.916;8.378;2022-11-20T03:47:41;38.50;;;22.30;;
35380;SDS011;21486;51.916;8.378;2022-11-20T03:50:07;39.67;;;22.73;;
35380;SDS011;21486;51.916;8.378;2022-11-20T03:52:34;40.72;;;23.02;;
35380;SDS011;21486;51.916;8.378;2022-11-20T03:54:59;36.97;;;21.97;;
35380;SDS011;21486;51.916;8.378;2022-11-20T03:57:25;39.63;;;21.33;;
35380;SDS011;21486;51.916;8.378;2022-11-20T03:59:50;42.90;;;21.93;;
35380;SDS011;21486;51.916;8.378;2022-11-20T04:02:16;36.63;;;21.42;;
35380;SDS011;21486;51.916;8.378;2022-11-20T04:04:42;33.53;;;20.08;;
35380;SDS011;21486;51.916;8.378;2022-11-20T04:07:07;38.88;;;20.83;;
35380;SDS011;21486;51.916;8.378;2022-11-20T04:09:33;42.38;;;22.30;;
35380;SDS011;21486;51.916;8.378;2022-11-20T04:11:58;39.53;;;21.30;;
35380;SDS011;21486;51.916;8.378;2022-11-20T04:14:24;32.63;;;20.03;;
35380;SDS011;21486;51.916;8.378;2022-11-20T04:16:50;39.17;;;21.53;;
35380;SDS011;21486;51.916;8.378;2022-11-20T04:19:16;38.53;;;22.03;;
35380;SDS011;21486;51.916;8.378;2022-11-20T04:21:42;37.08;;;21.58;;
35380;SDS011;21486;51.916;8.378;2022-11-20T04:24:08;38.53;;;22.20;;
35380;SDS011;21486;51.916;8.378;2022-11-20T04:26:35;39.42;;;21.77;;
35380;SDS011;21486;51.916;8.378;2022-11-20T04:29:02;43.00;;;21.98;;
35380;SDS011;21486;51.916;8.378;2022-11-20T04:31:28;36.77;;;20.77;;
35380;SDS011;21486;51.916;8.378;2022-11-20T04:33:58;36.42;;;20.60;;
35380;SDS011;21486;51.916;8.378;2022-11-20T04:36:25;38.87;;;20.77;;
35380;SDS011;21486;51.916;8.378;2022-11-20T04:38:52;38.20;;;21.40;;
35380;SDS011;21486;51.916;8.378;2022-11-20T04:41:20;36.97;;;19.90;;
35380;SDS011;21486;51.916;8.378;2022-11-20T04:43:50;41.10;;;21.17;;
35380;SDS011;21486;51.916;8.378;2022-11-20T04:46:18;43.17;;;21.42;;
35380;SDS011;21486;51.916;8.378;2022-11-20T04:48:44;39.28;;;21.27;;
35380;SDS011;21486;51.916;8.378;2022-11-20T04:51:10;39.38;;;21.05;;
35380;SDS011;21486;51.916;8.378;2022-11-20T04:53:36;37.88;;;20.38;;
35380;SDS011;21486;51.916;8.378;2022-11-20T04:56:03;42.55;;;21.67;;
35380;SDS011;21486;51.916;8.378;2022-11-20T04:58:30;35.78;;;20.85;;
35380;SDS011;21486;51.916;8.378;2022-11-20T05:01:02;35.10;;;20.30;;
35380;SDS011;21486;51.916;8.378;2022-11-20T05:03:30;39.63;;;20.73;;
35380;SDS011;21486;51.916;8.378;2022-11-20T05:05:56;37.72;;;19.95;;
35380;SDS011;21486;51.916;8.378;2022-11-20T05:08:24;36.88;;;19.27;;
35380;SDS011;21486;51.916;8.378;2022-11-20T05:10:50;31.38;;;18.30;;
35380;SDS011;21486;51.916;8.378;2022-11-20T05:13:15;30.52;;;18.15;;
35380;SDS011;21486;51.916;8.378;2022-11-20T05:15:41;35.83;;;18.10;;
35380;SDS011;21486;51.916;8.378;2022-11-20T05:18:06;39.30;;;18.73;;
35380;SDS011;21486;51.916;8.378;2022-11-20T05:20:32;31.87;;;18.27;;
35380;SDS011;21486;51.916;8.378;2022-11-20T05:22:58;34.37;;;18.17;;
35380;SDS011;21486;51.916;8.378;2022-11-20T05:25:23;29.40;;;17.10;;
35380;SDS011;21486;51.916;8.378;2022-11-20T05:27:49;35.57;;;17.33;;
35380;SDS011;21486;51.916;8.378;2022-11-20T05:30:14;28.90;;;16.77;;
35380;SDS011;21486;51.916;8.378;2022-11-20T05:32:40;30.40;;;17.57;;
35380;SDS011;21486;51.916;8.378;2022-11-20T05:35:06;28.95;;;16.85;;
35380;SDS011;21486;51.916;8.378;2022-11-20T05:37:32;28.48;;;16.20;;
35380;SDS011;21486;51.916;8.378;2022-11-20T05:39:57;28.92;;;16.60;;
35380;SDS011;21486;51.916;8.378;2022-11-20T05:42:23;27.00;;;16.75;;
35380;SDS011;21486;51.916;8.378;2022-11-20T05:44:55;28.38;;;16.35;;
35380;SDS011;21486;51.916;8.378;2022-11-20T05:47:21;28.90;;;17.25;;
35380;SDS011;21486;51.916;8.378;2022-11-20T05:49:47;29.10;;;16.80;;
35380;SDS011;21486;51.916;8.378;2022-11-20T05:52:13;34.13;;;18.07;;
35380;SDS011;21486;51.916;8.378;2022-11-20T05:54:38;27.70;;;17.43;;
35380;SDS011;21486;51.916;8.378;2022-11-20T05:57:04;28.20;;;16.17;;
35380;SDS011;21486;51.916;8.378;2022-11-20T05:59:29;28.25;;;16.52;;
35380;SDS011;21486;51.916;8.378;2022-11-20T06:01:55;29.15;;;16.35;;
35380;SDS011;21486;51.916;8.378;2022-11-20T06:04:20;27.45;;;15.23;;
35380;SDS011;21486;51.916;8.378;2022-11-20T06:06:46;26.92;;;15.50;;
35380;SDS011;21486;51.916;8.378;2022-11-20T06:09:12;25.43;;;15.10;;
35380;SDS011;21486;51.916;8.378;2022-11-20T06:11:37;24.90;;;15.17;;
35380;SDS011;21486;51.916;8.378;2022-11-20T06:14:03;24.40;;;15.17;;
35380;SDS011;21486;51.916;8.378;2022-11-20T06:16:29;31.43;;;17.00;;
35380;SDS011;21486;51.916;8.378;2022-11-20T06:18:54;34.60;;;19.93;;
35380;SDS011;21486;51.916;8.378;2022-11-20T06:21:20;33.83;;;18.98;;
35380;SDS011;21486;51.916;8.378;2022-11-20T06:23:49;32.88;;;19.10;;
35380;SDS011;21486;51.916;8.378;2022-11-20T06:26:16;32.63;;;18.67;;
35380;SDS011;21486;51.916;8.378;2022-11-20T06:28:49;34.40;;;18.27;;
35380;SDS011;21486;51.916;8.378;2022-11-20T06:31:16;36.78;;;19.05;;
35380;SDS011;21486;51.916;8.378;2022-11-20T06:33:44;33.40;;;18.88;;
35380;SDS011;21486;51.916;8.378;2022-11-20T06:36:10;37.27;;;18.87;;
35380;SDS011;21486;51.916;8.378;2022-11-20T06:38:37;31.65;;;17.90;;
35380;SDS011;21486;51.916;8.378;2022-11-20T06:41:04;31.83;;;17.75;;
35380;SDS011;21486;51.916;8.378;2022-11-20T06:43:30;31.27;;;17.17;;
35380;SDS011;21486;51.916;8.378;2022-11-20T06:45:56;29.50;;;17.60;;
35380;SDS011;21486;51.916;8.378;2022-11-20T06:48:23;25.10;;;15.20;;
35380;SDS011;21486;51.916;8.378;2022-11-20T06:50:50;25.88;;;15.10;;
35380;SDS011;21486;51.916;8.378;2022-11-20T06:53:16;23.48;;;14.45;;
35380;SDS011;21486;51.916;8.378;2022-11-20T06:55:43;22.48;;;14.38;;
35380;SDS011;21486;51.916;8.378;2022-11-20T06:58:09;25.00;;;14.05;;
35380;SDS011;21486;51.916;8.378;2022-11-20T07:00:35;22.73;;;14.48;;
35380;SDS011;21486;51.916;8.378;2022-11-20T07:03:04;23.93;;;15.10;;
35380;SDS011;21486;51.916;8.378;2022-11-20T07:05:30;23.38;;;15.05;;
35380;SDS011;21486;51.916;8.378;2022-11-20T07:07:56;23.77;;;14.87;;
35380;SDS011;21486;51.916;8.378;2022-11-20T07:10:22;24.67;;;14.77;;
35380;SDS011;21486;51.916;8.378;2022-11-20T07:12:51;24.97;;;14.40;;
35380;SDS011;21486;51.916;8.378;2022-11-20T07:15:18;22.00;;;14.35;;
35380;SDS011;21486;51.916;8.378;2022-11-20T07:17:44;26.23;;;14.65;;
35380;SDS011;21486;51.916;8.378;2022-11-20T07:20:10;22.98;;;14.93;;
35380;SDS011;21486;51.916;8.378;2022-11-20T07:22:37;25.90;;;14.35;;
35380;SDS011;21486;51.916;8.378;2022-11-20T07:25:02;22.53;;;13.33;;
35380;SDS011;21486;51.916;8.378;2022-11-20T07:27:29;23.42;;;14.07;;
35380;SDS011;21486;51.916;8.378;2022-11-20T07:29:54;23.53;;;14.47;;
35380;SDS011;21486;51.916;8.378;2022-11-20T07:32:21;22.75;;;14.05;;
35380;SDS011;21486;51.916;8.378;2022-11-20T07:34:47;24.45;;;14.30;;
35380;SDS011;21486;51.916;8.378;2022-11-20T07:37:13;24.45;;;14.57;;
35380;SDS011;21486;51.916;8.378;2022-11-20T07:39:39;23.92;;;14.40;;
35380;SDS011;21486;51.916;8.378;2022-11-20T07:42:08;25.48;;;14.57;;
35380;SDS011;21486;51.916;8.378;2022-11-20T07:44:34;26.10;;;14.85;;
35380;SDS011;21486;51.916;8.378;2022-11-20T07:47:00;26.67;;;15.27;;
35380;SDS011;21486;51.916;8.378;2022-11-20T07:49:26;24.58;;;15.20;;
35380;SDS011;21486;51.916;8.378;2022-11-20T07:51:52;25.63;;;15.37;;
35380;SDS011;21486;51.916;8.378;2022-11-20T07:54:19;27.20;;;15.32;;
35380;SDS011;21486;51.916;8.378;2022-11-20T07:56:45;25.77;;;14.37;;
35380;SDS011;21486;51.916;8.378;2022-11-20T07:59:11;28.88;;;15.43;;
35380;SDS011;21486;51.916;8.378;2022-11-20T08:01:38;29.58;;;15.95;;
35380;SDS011;21486;51.916;8.378;2022-11-20T08:04:04;31.48;;;15.57;;
35380;SDS011;21486;51.916;8.378;2022-11-20T08:06:30;30.25;;;15.45;;
35380;SDS011;21486;51.916;8.378;2022-11-20T08:08:56;37.55;;;15.85;;
35380;SDS011;21486;51.916;8.378;2022-11-20T08:11:22;32.67;;;15.47;;
35380;SDS011;21486;51.916;8.378;2022-11-20T08:14:07;32.20;;;15.43;;
35380;SDS011;21486;51.916;8.378;2022-11-20T08:16:42;33.35;;;15.57;;
35380;SDS011;21486;51.916;8.378;2022-11-20T08:19:09;29.05;;;15.02;;
35380;SDS011;21486;51.916;8.378;2022-11-20T08:21:35;31.58;;;15.65;;
35380;SDS011;21486;51.916;8.378;2022-11-20T08:24:01;24.17;;;15.43;;
35380;SDS011;21486;51.916;8.378;2022-11-20T08:26:34;27.48;;;16.63;;
35380;SDS011;21486;51.916;8.378;2022-11-20T08:29:00;25.13;;;15.25;;
35380;SDS011;21486;51.916;8.378;2022-11-20T08:31:27;28.33;;;15.47;;
35380;SDS011;21486;51.916;8.378;2022-11-20T08:33:53;23.20;;;14.68;;
35380;SDS011;21486;51.916;8.378;2022-11-20T08:36:20;24.38;;;14.48;;
35380;SDS011;21486;51.916;8.378;2022-11-20T08:38:47;23.30;;;14.48;;
35380;SDS011;21486;51.916;8.378;2022-11-20T08:41:14;22.83;;;15.02;;
35380;SDS011;21486;51.916;8.378;2022-11-20T08:44:09;30.08;;;16.00;;
35380;SDS011;21486;51.916;8.378;2022-11-20T08:49:02;24.27;;;14.75;;
35380;SDS011;21486;51.916;8.378;2022-11-20T08:51:58;24.95;;;14.40;;
35380;SDS011;21486;51.916;8.378;2022-11-20T08:54:24;25.27;;;14.52;;
35380;SDS011;21486;51.916;8.378;2022-11-20T08:56:49;22.63;;;13.87;;
35380;SDS011;21486;51.916;8.378;2022-11-20T08:59:15;19.10;;;12.07;;
35380;SDS011;21486;51.916;8.378;2022-11-20T09:01:40;20.92;;;13.13;;
35380;SDS011;21486;51.916;8.378;2022-11-20T09:04:06;20.55;;;11.55;;
35380;SDS011;21486;51.916;8.378;2022-11-20T09:06:32;19.35;;;12.23;;
35380;SDS011;21486;51.916;8.378;2022-11-20T09:08:57;18.48;;;11.82;;
35380;SDS011;21486;51.916;8.378;2022-11-20T09:11:23;19.17;;;11.98;;
35380;SDS011;21486;51.916;8.378;2022-11-20T09:13:48;18.73;;;12.07;;
35380;SDS011;21486;51.916;8.378;2022-11-20T09:16:14;34.92;;;18.90;;
35380;SDS011;21486;51.916;8.378;2022-11-20T09:18:40;19.35;;;11.93;;
35380;SDS011;21486;51.916;8.378;2022-11-20T09:21:06;20.67;;;13.27;;
35380;SDS011;21486;51.916;8.378;2022-11-20T09:23:37;17.33;;;12.13;;
35380;SDS011;21486;51.916;8.378;2022-11-20T09:26:04;18.02;;;11.80;;
35380;SDS011;21486;51.916;8.378;2022-11-20T09:28:31;19.25;;;12.18;;
35380;SDS011;21486;51.916;8.378;2022-11-20T09:30:57;32.65;;;19.83;;
35380;SDS011;21486;51.916;8.378;2022-11-20T09:33:22;17.50;;;12.73;;
35380;SDS011;21486;51.916;8.378;2022-11-20T09:35:48;19.27;;;13.77;;
35380;SDS011;21486;51.916;8.378;2022-11-20T09:38:14;25.17;;;19.47;;
35380;SDS011;21486;51.916;8.378;2022-11-20T09:40:43;25.60;;;13.03;;
35380;SDS011;21486;51.916;8.378;2022-11-20T09:54:17;15.10;;;10.63;;
35380;SDS011;21486;51.916;8.378;2022-11-20T09:56:53;15.15;;;10.98;;
35380;SDS011;21486;51.916;8.378;2022-11-20T09:59:33;15.45;;;10.60;;
35380;SDS011;21486;51.916;8.378;2022-11-20T10:11:04;15.98;;;10.40;;
35380;SDS011;21486;51.916;8.378;2022-11-20T10:22:20;16.42;;;11.75;;
35380;SDS011;21486;51.916;8.378;2022-11-20T10:27:28;18.47;;;13.37;;
35380;SDS011;21486;51.916;8.378;2022-11-20T10:32:39;15.07;;;11.68;;
35380;SDS011;21486;51.916;8.378;2022-11-20T10:37:40;15.40;;;10.98;;
35380;SDS011;21486;51.916;8.378;2022-11-20T10:42:55;15.95;;;11.40;;
35380;SDS011;21486;51.916;8.378;2022-11-20T10:47:49;18.13;;;12.07;;
35380;SDS011;21486;51.916;8.378;2022-11-20T10:50:21;17.37;;;12.10;;
35380;SDS011;21486;51.916;8.378;2022-11-20T10:58:48;15.80;;;11.88;;
35380;SDS011;21486;51.916;8.378;2022-11-20T11:01:17;19.23;;;12.13;;
35380;SDS011;21486;51.916;8.378;2022-11-20T11:03:46;17.80;;;12.15;;
35380;SDS011;21486;51.916;8.378;2022-11-20T11:08:59;17.98;;;12.50;;
35380;SDS011;21486;51.916;8.378;2022-11-20T11:11:30;17.05;;;12.07;;
35380;SDS011;21486;51.916;8.378;2022-11-20T11:14:11;21.60;;;13.90;;
35380;SDS011;21486;51.916;8.378;2022-11-20T11:16:51;19.60;;;14.05;;
35380;SDS011;21486;51.916;8.378;2022-11-20T11:19:21;17.33;;;12.77;;
35380;SDS011;21486;51.916;8.378;2022-11-20T11:21:51;18.98;;;12.75;;
35380;SDS011;21486;51.916;8.378;2022-11-20T11:24:22;18.27;;;12.70;;
35380;SDS011;21486;51.916;8.378;2022-11-20T11:26:53;17.80;;;12.23;;
35380;SDS011;21486;51.916;8.378;2022-11-20T11:29:22;17.30;;;12.07;;
35380;SDS011;21486;51.916;8.378;2022-11-20T11:31:48;17.33;;;11.73;;
35380;SDS011;21486;51.916;8.378;2022-11-20T11:34:15;19.70;;;13.05;;
35380;SDS011;21486;51.916;8.378;2022-11-20T11:36:42;17.15;;;12.65;;
35380;SDS011;21486;51.916;8.378;2022-11-20T11:39:17;20.10;;;13.20;;
35380;SDS011;21486;51.916;8.378;2022-11-20T11:41:44;20.05;;;13.95;;
35380;SDS011;21486;51.916;8.378;2022-11-20T11:44:21;19.98;;;14.13;;
35380;SDS011;21486;51.916;8.378;2022-11-20T11:47:11;20.45;;;12.98;;
35380;SDS011;21486;51.916;8.378;2022-11-20T11:49:44;22.10;;;13.47;;
35380;SDS011;21486;51.916;8.378;2022-11-20T11:52:16;23.80;;;14.67;;
35380;SDS011;21486;51.916;8.378;2022-11-20T11:55:01;26.13;;;14.63;;
35380;SDS011;21486;51.916;8.378;2022-11-20T12:00:14;25.70;;;14.95;;
35380;SDS011;21486;51.916;8.378;2022-11-20T12:13:28;23.98;;;15.60;;
35380;SDS011;21486;51.916;8.378;2022-11-20T12:16:01;23.15;;;15.05;;
35380;SDS011;21486;51.916;8.378;2022-11-20T12:18:28;25.90;;;16.05;;
35380;SDS011;21486;51.916;8.378;2022-11-20T12:23:56;26.45;;;16.33;;
35380;SDS011;21486;51.916;8.378;2022-11-20T12:29:24;29.75;;;17.48;;
35380;SDS011;21486;51.916;8.378;2022-11-20T12:36:02;29.20;;;16.90;;
35380;SDS011;21486;51.916;8.378;2022-11-20T12:53:42;32.78;;;20.30;;
35380;SDS011;21486;51.916;8.378;2022-11-20T12:56:17;32.53;;;19.17;;
35380;SDS011;21486;51.916;8.378;2022-11-20T13:07:55;32.27;;;19.03;;
35380;SDS011;21486;51.916;8.378;2022-11-20T13:13:25;30.55;;;18.27;;
35380;SDS011;21486;51.916;8.378;2022-11-20T13:16:36;27.20;;;17.77;;
35380;SDS011;21486;51.916;8.378;2022-11-20T13:19:08;29.85;;;18.00;;
35380;SDS011;21486;51.916;8.378;2022-11-20T13:21:37;33.30;;;21.77;;
35380;SDS011;21486;51.916;8.378;2022-11-20T13:29:36;29.67;;;18.08;;
35380;SDS011;21486;51.916;8.378;2022-11-20T13:32:15;29.48;;;17.90;;
35380;SDS011;21486;51.916;8.378;2022-11-20T13:34:53;30.42;;;18.10;;
35380;SDS011;21486;51.916;8.378;2022-11-20T13:37:24;29.02;;;18.05;;
35380;SDS011;21486;51.916;8.378;2022-11-20T13:42:38;28.00;;;18.37;;
35380;SDS011;21486;51.916;8.378;2022-11-20T13:45:09;33.10;;;18.02;;
35380;SDS011;21486;51.916;8.378;2022-11-20T13:47:49;32.47;;;19.58;;
35380;SDS011;21486;51.916;8.378;2022-11-20T13:50:16;31.08;;;18.17;;
35380;SDS011;21486;51.916;8.378;2022-11-20T13:52:52;30.95;;;17.98;;
35380;SDS011;21486;51.916;8.378;2022-11-20T13:55:38;31.73;;;20.20;;
35380;SDS011;21486;51.916;8.378;2022-11-20T13:58:27;31.67;;;19.52;;
35380;SDS011;21486;51.916;8.378;2022-11-20T14:01:26;33.08;;;19.50;;
35380;SDS011;21486;51.916;8.378;2022-11-20T14:03:54;36.28;;;20.45;;
35380;SDS011;21486;51.916;8.378;2022-11-20T14:06:27;37.75;;;21.95;;
35380;SDS011;21486;51.916;8.378;2022-11-20T14:08:58;38.00;;;20.30;;
35380;SDS011;21486;51.916;8.378;2022-11-20T14:11:25;35.80;;;21.20;;
35380;SDS011;21486;51.916;8.378;2022-11-20T14:14:03;38.13;;;22.35;;
35380;SDS011;21486;51.916;8.378;2022-11-20T14:16:38;33.35;;;20.23;;
35380;SDS011;21486;51.916;8.378;2022-11-20T14:22:09;37.50;;;21.38;;
35380;SDS011;21486;51.916;8.378;2022-11-20T14:24:42;35.83;;;21.48;;
35380;SDS011;21486;51.916;8.378;2022-11-20T14:27:15;35.70;;;20.40;;
35380;SDS011;21486;51.916;8.378;2022-11-20T14:29:44;40.05;;;22.67;;
35380;SDS011;21486;51.916;8.378;2022-11-20T14:32:11;38.05;;;21.73;;
35380;SDS011;21486;51.916;8.378;2022-11-20T14:34:41;37.42;;;21.90;;
35380;SDS011;21486;51.916;8.378;2022-11-20T14:37:13;36.17;;;20.63;;
35380;SDS011;21486;51.916;8.378;2022-11-20T14:39:57;36.47;;;20.33;;
35380;SDS011;21486;51.916;8.378;2022-11-20T14:42:26;35.95;;;21.13;;
35380;SDS011;21486;51.916;8.378;2022-11-20T14:44:58;37.77;;;20.70;;
35380;SDS011;21486;51.916;8.378;2022-11-20T14:47:25;37.25;;;21.30;;
35380;SDS011;21486;51.916;8.378;2022-11-20T14:49:56;36.92;;;20.83;;
35380;SDS011;21486;51.916;8.378;2022-11-20T14:52:24;40.67;;;21.10;;
35380;SDS011;21486;51.916;8.378;2022-11-20T14:54:54;38.95;;;20.65;;
35380;SDS011;21486;51.916;8.378;2022-11-20T14:57:30;37.35;;;22.55;;
35380;SDS011;21486;51.916;8.378;2022-11-20T15:00:04;40.47;;;23.20;;
35380;SDS011;21486;51.916;8.378;2022-11-20T15:02:38;45.60;;;25.75;;
35380;SDS011;21486;51.916;8.378;2022-11-20T15:05:08;41.50;;;24.98;;
35380;SDS011;21486;51.916;8.378;2022-11-20T15:07:36;41.75;;;24.08;;
35380;SDS011;21486;51.916;8.378;2022-11-20T15:10:12;42.17;;;24.42;;
35380;SDS011;21486;51.916;8.378;2022-11-20T15:12:55;39.55;;;24.23;;
35380;SDS011;21486;51.916;8.378;2022-11-20T15:17:59;40.30;;;23.13;;
35380;SDS011;21486;51.916;8.378;2022-11-20T15:20:26;45.80;;;25.83;;
35380;SDS011;21486;51.916;8.378;2022-11-20T15:22:54;51.75;;;26.83;;
35380;SDS011;21486;51.916;8.378;2022-11-20T15:25:20;46.43;;;26.67;;
35380;SDS011;21486;51.916;8.378;2022-11-20T15:27:54;42.00;;;25.37;;
35380;SDS011;21486;51.916;8.378;2022-11-20T15:30:21;39.70;;;23.83;;
35380;SDS011;21486;51.916;8.378;2022-11-20T15:32:47;39.03;;;22.70;;
35380;SDS011;21486;51.916;8.378;2022-11-20T15:35:14;38.50;;;22.48;;
35380;SDS011;21486;51.916;8.378;2022-11-20T15:37:40;36.30;;;20.33;;
35380;SDS011;21486;51.916;8.378;2022-11-20T15:40:06;36.55;;;21.02;;
35380;SDS011;21486;51.916;8.378;2022-11-20T15:42:33;38.80;;;20.88;;
35380;SDS011;21486;51.916;8.378;2022-11-20T15:44:59;33.60;;;20.53;;
35380;SDS011;21486;51.916;8.378;2022-11-20T15:47:27;36.10;;;21.02;;
35380;SDS011;21486;51.916;8.378;2022-11-20T15:49:56;33.78;;;19.58;;
35380;SDS011;21486;51.916;8.378;2022-11-20T15:52:21;37.72;;;20.58;;
35380;SDS011;21486;51.916;8.378;2022-11-20T15:54:47;36.97;;;21.23;;
35380;SDS011;21486;51.916;8.378;2022-11-20T15:57:13;36.83;;;21.25;;
35380;SDS011;21486;51.916;8.378;2022-11-20T15:59:39;35.72;;;21.67;;
35380;SDS011;21486;51.916;8.378;2022-11-20T16:02:12;36.97;;;22.17;;
35380;SDS011;21486;51.916;8.378;2022-11-20T16:04:39;35.08;;;21.27;;
35380;SDS011;21486;51.916;8.378;2022-11-20T16:07:06;34.45;;;21.10;;
35380;SDS011;21486;51.916;8.378;2022-11-20T16:09:31;37.13;;;21.53;;
35380;SDS011;21486;51.916;8.378;2022-11-20T16:11:57;35.40;;;21.63;;
35380;SDS011;21486;51.916;8.378;2022-11-20T16:14:26;36.42;;;21.02;;
35380;SDS011;21486;51.916;8.378;2022-11-20T16:17:11;32.47;;;19.83;;
35380;SDS011;21486;51.916;8.378;2022-11-20T16:19:37;31.33;;;18.67;;
35380;SDS011;21486;51.916;8.378;2022-11-20T16:22:04;33.92;;;20.75;;
35380;SDS011;21486;51.916;8.378;2022-11-20T16:24:30;59.53;;;31.93;;
35380;SDS011;21486;51.916;8.378;2022-11-20T16:26:56;35.08;;;19.85;;
35380;SDS011;21486;51.916;8.378;2022-11-20T16:29:22;35.28;;;20.00;;
35380;SDS011;21486;51.916;8.378;2022-11-20T16:31:48;32.10;;;19.52;;
35380;SDS011;21486;51.916;8.378;2022-11-20T16:34:15;36.10;;;20.67;;